This is the latest recevied weather packets stored in our database for station/object KB4KY. If no packets are shown the sender has not sent any weather packets the latest 10 day(s).
| Time | Temp. | Humidity | Pressure | Rain* | Wind** | Luminosity | Snow |
|---|---|---|---|---|---|---|---|
| 1777763017 | 14.44° C | 55% | 1016.6 hPa | 0 mm | - | - | - |
| 1777762717 | 14.44° C | 55% | 1016.7 hPa | 0 mm | - | - | - |
| 1777762415 | 14.44° C | 55% | 1016.5 hPa | 0 mm | - | - | - |
| 1777762335 | 13.33° C | 60% | 1016.6 hPa | 0 mm | - | - | - |
| 1777762116 | 14.44° C | 55% | 1016.5 hPa | 0 mm | - | - | - |
| 1777762037 | 13.33° C | 59% | 1016.7 hPa | 0 mm | - | - | - |
| 1777761816 | 13.89° C | 59% | 1016.4 hPa | 0 mm | - | - | - |
| 1777761514 | 13.33° C | 58% | 1016.6 hPa | 0 mm | - | - | - |
| 1777761218 | 13.33° C | 60% | 1016.6 hPa | 0 mm | - | - | - |
| 1777760973 | 13.89° C | 57% | 1016.6 hPa | 0 mm | - | - | - |
| 1777760915 | 13.33° C | 59% | 1016.7 hPa | 0 mm | - | - | - |
| 1777760615 | 13.89° C | 57% | 1016.6 hPa | 0 mm | - | - | - |
| 1777760526 | 14.44° C | 56% | 1016.6 hPa | 0 mm | - | - | - |
| 1777760313 | 14.44° C | 56% | 1016.6 hPa | 0 mm | - | - | - |
| 1777760102 | 14.44° C | 60% | 1016.6 hPa | 0 mm | - | - | - |
| 1777760015 | 14.44° C | 55% | 1016.6 hPa | 0 mm | - | - | - |
| 1777759712 | 14.44° C | 60% | 1016.6 hPa | 0 mm | - | - | - |
| 1777759475 | 13.33° C | 62% | 1016.6 hPa | 0 mm | - | - | - |
| 1777759412 | 13.33° C | 62% | 1016.6 hPa | 0 mm | - | - | - |
| 1777759113 | 13.33° C | 62% | 1016.5 hPa | 0 mm | - | - | - |
| 1777758813 | 12.78° C | 64% | 1016.5 hPa | 0 mm | - | - | - |
| 1777758513 | 12.78° C | 67% | 1016.4 hPa | 0 mm | - | - | - |
| 1777758331 | 12.22° C | 67% | 1016.4 hPa | 0 mm | - | - | - |
| 1777758212 | 12.22° C | 69% | 1016.4 hPa | 0 mm | - | - | - |
| 1777757912 | 12.22° C | 67% | 1016.4 hPa | 0 mm | - | - | - |
* Rain latest hour (hover to see other rain measurements)
** Current wind speed in m/s (hover to see current wind gust speed)